This is the latest recevied weather packets stored in our database for station/object DG8SF-13. If no packets are shown the sender has not sent any weather packets the latest 10 day(s).
| Time | Temp. | Humidity | Pressure | Rain* | Wind** | Luminosity | Snow |
|---|---|---|---|---|---|---|---|
| 1788075469 | 20° C | 71% | 1016.5 hPa | 0 mm | - | - | - |
| 1788075147 | 20° C | 71% | 1016.5 hPa | 0 mm | - | - | - |
| 1788074833 | 19.44° C | 72% | 1016.4 hPa | 0 mm | - | - | - |
| 1788074497 | 19.44° C | 73% | 1016.5 hPa | 0 mm | - | - | - |
| 1788074184 | 19.44° C | 73% | 1016.6 hPa | 0 mm | - | - | - |
| 1788073875 | 18.89° C | 74% | 1016.5 hPa | 0 mm | - | - | - |
| 1788073562 | 19.44° C | 74% | 1016.4 hPa | 0 mm | - | - | - |
| 1788073238 | 19.44° C | 72% | 1016.4 hPa | 0 mm | - | - | - |
| 1788072925 | 20° C | 71% | 1016.4 hPa | 0 mm | - | - | - |
| 1788072615 | 19.44° C | 73% | 1016.5 hPa | 0 mm | - | - | - |
| 1788072276 | 20° C | 72% | 1016.5 hPa | 0 mm | - | - | - |
| 1788071965 | 18.89° C | 76% | 1016.5 hPa | 0 mm | - | - | - |
| 1788071653 | 18.33° C | 76% | 1016.5 hPa | 0 mm | - | - | - |
| 1788071343 | 17.78° C | 78% | 1016.6 hPa | 0 mm | - | - | - |
| 1788071028 | 17.78° C | 79% | 1016.5 hPa | 0 mm | - | - | - |
| 1788070718 | 17.22° C | 81% | 1016.6 hPa | 0 mm | - | - | - |
| 1788070393 | 16.67° C | 83% | 1016.6 hPa | 0 mm | - | - | - |
| 1788070083 | 16.67° C | 83% | 1016.6 hPa | 0 mm | - | - | - |
| 1788069770 | 16.67° C | 84% | 1016.6 hPa | 0 mm | - | - | - |
| 1788069463 | 16.11° C | 84% | 1016.7 hPa | 0 mm | - | - | - |
| 1788069134 | 16.11° C | 85% | 1016.7 hPa | 0 mm | - | - | - |
| 1788068821 | 15.56° C | 85% | 1016.5 hPa | 0 mm | - | - | - |
| 1788068508 | 15.56° C | 87% | 1016.5 hPa | 0 mm | - | - | - |
| 1788068203 | 15° C | 89% | 1016.5 hPa | 0 mm | - | - | - |
| 1788067885 | 15° C | 90% | 1016.5 hPa | 0 mm | - | - | - |
* Rain latest hour (hover to see other rain measurements)
** Current wind speed in m/s (hover to see current wind gust speed)